sensor_id;sensor_type;location;lat;lon;timestamp;P1;durP1;ratioP1;P2;durP2;ratioP2
2602;SDS011;1311;47.966;7.958;2023-05-14T00:00:35;5.13;;;4.63;;
2602;SDS011;1311;47.966;7.958;2023-05-14T00:03:01;4.43;;;4.03;;
2602;SDS011;1311;47.966;7.958;2023-05-14T00:05:28;4.53;;;4.13;;
2602;SDS011;1311;47.966;7.958;2023-05-14T00:07:55;4.77;;;4.37;;
2602;SDS011;1311;47.966;7.958;2023-05-14T00:10:22;6.23;;;4.47;;
2602;SDS011;1311;47.966;7.958;2023-05-14T00:12:51;5.73;;;4.50;;
2602;SDS011;1311;47.966;7.958;2023-05-14T00:15:18;4.87;;;4.40;;
2602;SDS011;1311;47.966;7.958;2023-05-14T00:17:45;4.40;;;4.00;;
2602;SDS011;1311;47.966;7.958;2023-05-14T00:20:12;4.50;;;4.10;;
2602;SDS011;1311;47.966;7.958;2023-05-14T00:22:38;5.00;;;4.50;;
2602;SDS011;1311;47.966;7.958;2023-05-14T00:25:06;4.07;;;3.67;;
2602;SDS011;1311;47.966;7.958;2023-05-14T00:27:33;3.80;;;3.40;;
2602;SDS011;1311;47.966;7.958;2023-05-14T00:30:03;4.70;;;4.03;;
2602;SDS011;1311;47.966;7.958;2023-05-14T00:32:31;4.10;;;3.70;;
2602;SDS011;1311;47.966;7.958;2023-05-14T00:34:58;3.90;;;3.60;;
2602;SDS011;1311;47.966;7.958;2023-05-14T00:37:26;4.00;;;3.70;;
2602;SDS011;1311;47.966;7.958;2023-05-14T00:39:53;3.53;;;3.23;;
2602;SDS011;1311;47.966;7.958;2023-05-14T00:42:20;5.83;;;3.93;;
2602;SDS011;1311;47.966;7.958;2023-05-14T00:44:47;4.30;;;3.90;;
2602;SDS011;1311;47.966;7.958;2023-05-14T00:47:15;4.60;;;3.03;;
2602;SDS011;1311;47.966;7.958;2023-05-14T00:49:41;3.33;;;3.03;;
2602;SDS011;1311;47.966;7.958;2023-05-14T00:52:09;2.57;;;2.37;;
2602;SDS011;1311;47.966;7.958;2023-05-14T00:54:36;3.03;;;2.80;;
2602;SDS011;1311;47.966;7.958;2023-05-14T00:57:03;2.63;;;2.43;;
2602;SDS011;1311;47.966;7.958;2023-05-14T00:59:31;2.67;;;2.47;;
2602;SDS011;1311;47.966;7.958;2023-05-14T01:01:58;2.70;;;2.50;;
2602;SDS011;1311;47.966;7.958;2023-05-14T01:04:26;4.13;;;3.17;;
2602;SDS011;1311;47.966;7.958;2023-05-14T01:06:56;3.87;;;3.33;;
2602;SDS011;1311;47.966;7.958;2023-05-14T01:09:32;3.60;;;3.30;;
2602;SDS011;1311;47.966;7.958;2023-05-14T01:12:07;4.60;;;3.53;;
2602;SDS011;1311;47.966;7.958;2023-05-14T01:14:42;5.13;;;3.83;;
2602;SDS011;1311;47.966;7.958;2023-05-14T01:17:18;3.93;;;3.63;;
2602;SDS011;1311;47.966;7.958;2023-05-14T01:19:48;3.90;;;3.60;;
2602;SDS011;1311;47.966;7.958;2023-05-14T01:22:17;4.57;;;3.90;;
2602;SDS011;1311;47.966;7.958;2023-05-14T01:24:44;3.40;;;3.10;;
2602;SDS011;1311;47.966;7.958;2023-05-14T01:27:12;3.80;;;3.40;;
2602;SDS011;1311;47.966;7.958;2023-05-14T01:29:45;3.43;;;3.13;;
2602;SDS011;1311;47.966;7.958;2023-05-14T01:32:18;3.50;;;3.20;;
2602;SDS011;1311;47.966;7.958;2023-05-14T01:34:48;4.37;;;3.93;;
2602;SDS011;1311;47.966;7.958;2023-05-14T01:37:18;4.70;;;4.30;;
2602;SDS011;1311;47.966;7.958;2023-05-14T01:39:45;4.87;;;4.17;;
2602;SDS011;1311;47.966;7.958;2023-05-14T01:42:13;5.10;;;4.60;;
2602;SDS011;1311;47.966;7.958;2023-05-14T01:44:40;5.07;;;4.57;;
2602;SDS011;1311;47.966;7.958;2023-05-14T01:47:07;6.03;;;4.20;;
2602;SDS011;1311;47.966;7.958;2023-05-14T01:49:34;4.80;;;4.40;;
2602;SDS011;1311;47.966;7.958;2023-05-14T01:52:01;4.47;;;4.07;;
2602;SDS011;1311;47.966;7.958;2023-05-14T01:54:30;4.73;;;4.27;;
2602;SDS011;1311;47.966;7.958;2023-05-14T01:56:56;4.97;;;4.50;;
2602;SDS011;1311;47.966;7.958;2023-05-14T01:59:23;4.63;;;4.20;;
2602;SDS011;1311;47.966;7.958;2023-05-14T02:01:50;4.47;;;4.07;;
2602;SDS011;1311;47.966;7.958;2023-05-14T02:04:16;3.93;;;3.63;;
2602;SDS011;1311;47.966;7.958;2023-05-14T02:06:44;5.47;;;4.97;;
2602;SDS011;1311;47.966;7.958;2023-05-14T02:09:11;13.00;;;8.00;;
2602;SDS011;1311;47.966;7.958;2023-05-14T02:11:39;12.57;;;7.80;;
2602;SDS011;1311;47.966;7.958;2023-05-14T02:14:06;8.00;;;5.93;;
2602;SDS011;1311;47.966;7.958;2023-05-14T02:16:33;7.33;;;5.37;;
2602;SDS011;1311;47.966;7.958;2023-05-14T02:18:59;4.33;;;2.97;;
2602;SDS011;1311;47.966;7.958;2023-05-14T02:21:26;3.63;;;3.33;;
2602;SDS011;1311;47.966;7.958;2023-05-14T02:23:53;5.20;;;3.47;;
2602;SDS011;1311;47.966;7.958;2023-05-14T02:26:20;4.00;;;3.60;;
2602;SDS011;1311;47.966;7.958;2023-05-14T02:28:48;4.50;;;4.10;;
2602;SDS011;1311;47.966;7.958;2023-05-14T02:31:15;4.40;;;4.00;;
2602;SDS011;1311;47.966;7.958;2023-05-14T02:33:43;7.53;;;4.07;;
2602;SDS011;1311;47.966;7.958;2023-05-14T02:36:10;10.50;;;4.13;;
2602;SDS011;1311;47.966;7.958;2023-05-14T02:38:36;4.87;;;4.23;;
2602;SDS011;1311;47.966;7.958;2023-05-14T02:41:04;3.83;;;3.53;;
2602;SDS011;1311;47.966;7.958;2023-05-14T02:43:30;10.00;;;5.10;;
2602;SDS011;1311;47.966;7.958;2023-05-14T02:45:58;5.97;;;5.37;;
2602;SDS011;1311;47.966;7.958;2023-05-14T02:48:25;4.83;;;4.33;;
2602;SDS011;1311;47.966;7.958;2023-05-14T02:50:52;5.30;;;4.80;;
2602;SDS011;1311;47.966;7.958;2023-05-14T02:53:19;5.60;;;5.10;;
2602;SDS011;1311;47.966;7.958;2023-05-14T02:55:45;4.97;;;4.47;;
2602;SDS011;1311;47.966;7.958;2023-05-14T02:58:12;5.33;;;4.73;;
2602;SDS011;1311;47.966;7.958;2023-05-14T03:00:39;5.50;;;5.00;;
2602;SDS011;1311;47.966;7.958;2023-05-14T03:03:07;7.00;;;5.10;;
2602;SDS011;1311;47.966;7.958;2023-05-14T03:05:34;4.80;;;4.40;;
2602;SDS011;1311;47.966;7.958;2023-05-14T03:08:00;5.13;;;4.63;;
2602;SDS011;1311;47.966;7.958;2023-05-14T03:10:27;5.77;;;5.27;;
2602;SDS011;1311;47.966;7.958;2023-05-14T03:12:54;5.20;;;4.70;;
2602;SDS011;1311;47.966;7.958;2023-05-14T03:15:21;7.27;;;5.50;;
2602;SDS011;1311;47.966;7.958;2023-05-14T03:17:47;5.23;;;4.73;;
2602;SDS011;1311;47.966;7.958;2023-05-14T03:20:15;5.00;;;4.50;;
2602;SDS011;1311;47.966;7.958;2023-05-14T03:22:42;4.93;;;4.53;;
2602;SDS011;1311;47.966;7.958;2023-05-14T03:25:09;5.27;;;4.77;;
2602;SDS011;1311;47.966;7.958;2023-05-14T03:27:36;5.40;;;5.00;;
2602;SDS011;1311;47.966;7.958;2023-05-14T03:30:03;4.90;;;4.33;;
2602;SDS011;1311;47.966;7.958;2023-05-14T03:32:30;4.80;;;4.30;;
2602;SDS011;1311;47.966;7.958;2023-05-14T03:34:57;4.77;;;4.37;;
2602;SDS011;1311;47.966;7.958;2023-05-14T03:37:25;5.90;;;5.10;;
2602;SDS011;1311;47.966;7.958;2023-05-14T03:39:52;6.17;;;5.57;;
2602;SDS011;1311;47.966;7.958;2023-05-14T03:42:19;6.07;;;5.40;;
2602;SDS011;1311;47.966;7.958;2023-05-14T03:44:45;9.40;;;6.13;;
2602;SDS011;1311;47.966;7.958;2023-05-14T03:47:12;5.97;;;5.37;;
2602;SDS011;1311;47.966;7.958;2023-05-14T03:49:39;5.03;;;4.60;;
2602;SDS011;1311;47.966;7.958;2023-05-14T03:52:06;7.93;;;4.40;;
2602;SDS011;1311;47.966;7.958;2023-05-14T03:54:34;4.73;;;4.30;;
2602;SDS011;1311;47.966;7.958;2023-05-14T03:57:02;3.83;;;3.50;;
2602;SDS011;1311;47.966;7.958;2023-05-14T03:59:29;3.10;;;2.80;;
2602;SDS011;1311;47.966;7.958;2023-05-14T04:01:56;3.70;;;3.40;;
2602;SDS011;1311;47.966;7.958;2023-05-14T04:04:23;3.13;;;2.83;;
2602;SDS011;1311;47.966;7.958;2023-05-14T04:06:49;3.10;;;2.90;;
2602;SDS011;1311;47.966;7.958;2023-05-14T04:09:16;3.80;;;3.50;;
2602;SDS011;1311;47.966;7.958;2023-05-14T04:11:44;3.67;;;3.37;;
2602;SDS011;1311;47.966;7.958;2023-05-14T04:14:11;4.03;;;3.73;;
2602;SDS011;1311;47.966;7.958;2023-05-14T04:16:38;4.23;;;3.83;;
2602;SDS011;1311;47.966;7.958;2023-05-14T04:19:04;5.63;;;5.13;;
2602;SDS011;1311;47.966;7.958;2023-05-14T04:21:31;5.67;;;4.83;;
2602;SDS011;1311;47.966;7.958;2023-05-14T04:23:58;5.10;;;4.60;;
2602;SDS011;1311;47.966;7.958;2023-05-14T04:26:25;5.33;;;4.83;;
2602;SDS011;1311;47.966;7.958;2023-05-14T04:28:53;4.60;;;4.20;;
2602;SDS011;1311;47.966;7.958;2023-05-14T04:31:19;4.50;;;4.10;;
2602;SDS011;1311;47.966;7.958;2023-05-14T04:33:46;5.37;;;4.87;;
2602;SDS011;1311;47.966;7.958;2023-05-14T04:36:13;4.90;;;4.43;;
2602;SDS011;1311;47.966;7.958;2023-05-14T04:38:40;4.80;;;4.30;;
2602;SDS011;1311;47.966;7.958;2023-05-14T04:41:07;5.37;;;4.50;;
2602;SDS011;1311;47.966;7.958;2023-05-14T04:43:34;8.10;;;7.30;;
2602;SDS011;1311;47.966;7.958;2023-05-14T04:46:02;7.57;;;6.87;;
2602;SDS011;1311;47.966;7.958;2023-05-14T04:48:29;6.37;;;5.80;;
2602;SDS011;1311;47.966;7.958;2023-05-14T04:50:55;5.27;;;4.87;;
2602;SDS011;1311;47.966;7.958;2023-05-14T04:53:22;5.57;;;4.73;;
2602;SDS011;1311;47.966;7.958;2023-05-14T04:55:49;5.17;;;4.67;;
2602;SDS011;1311;47.966;7.958;2023-05-14T04:58:16;3.83;;;3.53;;
2602;SDS011;1311;47.966;7.958;2023-05-14T05:00:43;5.37;;;4.90;;
2602;SDS011;1311;47.966;7.958;2023-05-14T05:03:11;5.23;;;4.77;;
2602;SDS011;1311;47.966;7.958;2023-05-14T05:05:37;4.87;;;4.47;;
2602;SDS011;1311;47.966;7.958;2023-05-14T05:08:04;5.47;;;4.97;;
2602;SDS011;1311;47.966;7.958;2023-05-14T05:10:31;4.40;;;4.00;;
2602;SDS011;1311;47.966;7.958;2023-05-14T05:12:58;4.53;;;4.13;;
2602;SDS011;1311;47.966;7.958;2023-05-14T05:15:25;5.40;;;4.90;;
2602;SDS011;1311;47.966;7.958;2023-05-14T05:17:52;5.93;;;5.33;;
2602;SDS011;1311;47.966;7.958;2023-05-14T05:20:20;4.97;;;4.47;;
2602;SDS011;1311;47.966;7.958;2023-05-14T05:22:47;5.63;;;5.13;;
2602;SDS011;1311;47.966;7.958;2023-05-14T05:25:14;4.63;;;4.20;;
2602;SDS011;1311;47.966;7.958;2023-05-14T05:27:40;4.73;;;4.20;;
2602;SDS011;1311;47.966;7.958;2023-05-14T05:30:07;5.10;;;4.60;;
2602;SDS011;1311;47.966;7.958;2023-05-14T05:32:35;5.70;;;5.10;;
2602;SDS011;1311;47.966;7.958;2023-05-14T05:35:02;5.27;;;4.00;;
2602;SDS011;1311;47.966;7.958;2023-05-14T05:37:30;4.90;;;4.03;;
2602;SDS011;1311;47.966;7.958;2023-05-14T05:39:57;4.63;;;4.23;;
2602;SDS011;1311;47.966;7.958;2023-05-14T05:42:23;4.80;;;4.30;;
2602;SDS011;1311;47.966;7.958;2023-05-14T05:44:51;3.90;;;3.57;;
2602;SDS011;1311;47.966;7.958;2023-05-14T05:47:17;4.67;;;4.27;;
2602;SDS011;1311;47.966;7.958;2023-05-14T05:49:44;3.97;;;3.60;;
2602;SDS011;1311;47.966;7.958;2023-05-14T05:52:11;4.80;;;4.40;;
2602;SDS011;1311;47.966;7.958;2023-05-14T05:54:39;7.27;;;6.57;;
2602;SDS011;1311;47.966;7.958;2023-05-14T05:57:06;8.70;;;6.80;;
2602;SDS011;1311;47.966;7.958;2023-05-14T05:59:33;10.00;;;8.00;;
2602;SDS011;1311;47.966;7.958;2023-05-14T06:02:00;6.27;;;5.60;;
2602;SDS011;1311;47.966;7.958;2023-05-14T06:04:27;8.07;;;5.53;;
2602;SDS011;1311;47.966;7.958;2023-05-14T06:06:53;6.00;;;4.50;;
2602;SDS011;1311;47.966;7.958;2023-05-14T06:09:20;4.70;;;4.30;;
2602;SDS011;1311;47.966;7.958;2023-05-14T06:11:48;3.80;;;3.50;;
2602;SDS011;1311;47.966;7.958;2023-05-14T06:14:15;4.40;;;3.93;;
2602;SDS011;1311;47.966;7.958;2023-05-14T06:16:41;5.40;;;4.90;;
2602;SDS011;1311;47.966;7.958;2023-05-14T06:19:08;6.37;;;5.73;;
2602;SDS011;1311;47.966;7.958;2023-05-14T06:21:35;6.60;;;5.80;;
2602;SDS011;1311;47.966;7.958;2023-05-14T06:24:02;6.63;;;6.03;;
2602;SDS011;1311;47.966;7.958;2023-05-14T06:26:29;6.40;;;5.80;;
2602;SDS011;1311;47.966;7.958;2023-05-14T06:28:57;4.73;;;4.27;;
2602;SDS011;1311;47.966;7.958;2023-05-14T06:31:24;6.17;;;5.57;;
2602;SDS011;1311;47.966;7.958;2023-05-14T06:33:51;5.27;;;4.77;;
2602;SDS011;1311;47.966;7.958;2023-05-14T06:36:18;5.20;;;4.70;;
2602;SDS011;1311;47.966;7.958;2023-05-14T06:38:44;5.03;;;4.53;;
2602;SDS011;1311;47.966;7.958;2023-05-14T06:41:11;4.97;;;4.57;;
2602;SDS011;1311;47.966;7.958;2023-05-14T06:43:38;5.90;;;4.63;;
2602;SDS011;1311;47.966;7.958;2023-05-14T06:46:06;5.90;;;5.30;;
2602;SDS011;1311;47.966;7.958;2023-05-14T06:48:33;5.57;;;5.07;;
2602;SDS011;1311;47.966;7.958;2023-05-14T06:51:00;5.30;;;4.80;;
2602;SDS011;1311;47.966;7.958;2023-05-14T06:53:28;5.83;;;5.07;;
2602;SDS011;1311;47.966;7.958;2023-05-14T06:55:55;4.33;;;4.00;;
2602;SDS011;1311;47.966;7.958;2023-05-14T06:58:21;5.07;;;4.50;;
2602;SDS011;1311;47.966;7.958;2023-05-14T07:00:48;5.53;;;5.03;;
2602;SDS011;1311;47.966;7.958;2023-05-14T07:03:16;5.73;;;5.13;;
2602;SDS011;1311;47.966;7.958;2023-05-14T07:05:43;6.80;;;5.00;;
2602;SDS011;1311;47.966;7.958;2023-05-14T07:08:10;6.30;;;5.70;;
2602;SDS011;1311;47.966;7.958;2023-05-14T07:10:37;4.80;;;4.47;;
2602;SDS011;1311;47.966;7.958;2023-05-14T07:13:04;4.60;;;4.30;;
2602;SDS011;1311;47.966;7.958;2023-05-14T07:15:31;4.77;;;4.33;;
2602;SDS011;1311;47.966;7.958;2023-05-14T07:17:58;5.40;;;4.90;;
2602;SDS011;1311;47.966;7.958;2023-05-14T07:20:26;7.60;;;4.73;;
2602;SDS011;1311;47.966;7.958;2023-05-14T07:22:53;4.43;;;4.10;;
2602;SDS011;1311;47.966;7.958;2023-05-14T07:25:20;6.27;;;5.77;;
2602;SDS011;1311;47.966;7.958;2023-05-14T07:27:47;6.33;;;5.73;;
2602;SDS011;1311;47.966;7.958;2023-05-14T07:30:13;6.40;;;5.30;;
2602;SDS011;1311;47.966;7.958;2023-05-14T07:32:40;5.57;;;5.07;;
2602;SDS011;1311;47.966;7.958;2023-05-14T07:35:07;5.67;;;5.20;;
2602;SDS011;1311;47.966;7.958;2023-05-14T07:37:37;6.00;;;5.50;;
2602;SDS011;1311;47.966;7.958;2023-05-14T07:40:04;6.43;;;4.90;;
2602;SDS011;1311;47.966;7.958;2023-05-14T07:42:31;5.80;;;5.20;;
2602;SDS011;1311;47.966;7.958;2023-05-14T07:44:58;5.63;;;5.13;;
2602;SDS011;1311;47.966;7.958;2023-05-14T07:47:25;5.70;;;5.20;;
2602;SDS011;1311;47.966;7.958;2023-05-14T07:49:53;4.60;;;4.20;;
2602;SDS011;1311;47.966;7.958;2023-05-14T07:52:20;4.67;;;4.27;;
2602;SDS011;1311;47.966;7.958;2023-05-14T07:54:48;5.80;;;4.37;;
2602;SDS011;1311;47.966;7.958;2023-05-14T07:57:15;4.83;;;4.33;;
2602;SDS011;1311;47.966;7.958;2023-05-14T07:59:42;4.47;;;4.07;;
2602;SDS011;1311;47.966;7.958;2023-05-14T08:02:09;5.23;;;4.83;;
2602;SDS011;1311;47.966;7.958;2023-05-14T08:04:36;6.40;;;5.80;;
2602;SDS011;1311;47.966;7.958;2023-05-14T08:07:03;8.70;;;5.43;;
2602;SDS011;1311;47.966;7.958;2023-05-14T08:09:32;5.40;;;4.90;;
2602;SDS011;1311;47.966;7.958;2023-05-14T08:12:00;4.73;;;4.33;;
2602;SDS011;1311;47.966;7.958;2023-05-14T08:14:26;5.43;;;4.93;;
2602;SDS011;1311;47.966;7.958;2023-05-14T08:16:53;5.73;;;5.20;;
2602;SDS011;1311;47.966;7.958;2023-05-14T08:19:20;6.03;;;5.43;;
2602;SDS011;1311;47.966;7.958;2023-05-14T08:21:47;5.10;;;4.70;;
2602;SDS011;1311;47.966;7.958;2023-05-14T08:24:15;4.53;;;4.13;;
2602;SDS011;1311;47.966;7.958;2023-05-14T08:26:43;5.13;;;4.73;;
2602;SDS011;1311;47.966;7.958;2023-05-14T08:29:11;5.00;;;4.30;;
2602;SDS011;1311;47.966;7.958;2023-05-14T08:31:39;5.40;;;5.00;;
2602;SDS011;1311;47.966;7.958;2023-05-14T08:34:06;6.17;;;5.57;;
2602;SDS011;1311;47.966;7.958;2023-05-14T08:36:32;6.00;;;5.50;;
2602;SDS011;1311;47.966;7.958;2023-05-14T08:38:59;5.80;;;5.30;;
2602;SDS011;1311;47.966;7.958;2023-05-14T08:41:26;6.07;;;5.50;;
2602;SDS011;1311;47.966;7.958;2023-05-14T08:43:55;4.90;;;4.50;;
2602;SDS011;1311;47.966;7.958;2023-05-14T08:46:29;5.40;;;5.00;;
2602;SDS011;1311;47.966;7.958;2023-05-14T08:48:56;5.47;;;5.00;;
2602;SDS011;1311;47.966;7.958;2023-05-14T08:51:29;5.50;;;5.00;;
2602;SDS011;1311;47.966;7.958;2023-05-14T08:53:57;5.07;;;4.67;;
2602;SDS011;1311;47.966;7.958;2023-05-14T08:56:27;5.37;;;4.87;;
2602;SDS011;1311;47.966;7.958;2023-05-14T08:58:56;5.87;;;5.27;;
2602;SDS011;1311;47.966;7.958;2023-05-14T09:01:23;5.60;;;5.10;;
2602;SDS011;1311;47.966;7.958;2023-05-14T09:03:52;5.43;;;4.93;;
2602;SDS011;1311;47.966;7.958;2023-05-14T09:06:19;5.70;;;5.20;;
2602;SDS011;1311;47.966;7.958;2023-05-14T09:08:47;5.10;;;4.67;;
2602;SDS011;1311;47.966;7.958;2023-05-14T09:11:14;4.90;;;4.40;;
2602;SDS011;1311;47.966;7.958;2023-05-14T09:13:41;7.70;;;4.50;;
2602;SDS011;1311;47.966;7.958;2023-05-14T09:16:07;6.80;;;5.80;;
2602;SDS011;1311;47.966;7.958;2023-05-14T09:18:34;5.70;;;5.20;;
2602;SDS011;1311;47.966;7.958;2023-05-14T09:21:03;5.50;;;4.97;;
2602;SDS011;1311;47.966;7.958;2023-05-14T09:23:30;5.00;;;4.60;;
2602;SDS011;1311;47.966;7.958;2023-05-14T09:25:59;4.30;;;3.90;;
2602;SDS011;1311;47.966;7.958;2023-05-14T09:28:29;5.20;;;4.60;;
2602;SDS011;1311;47.966;7.958;2023-05-14T09:30:56;4.97;;;4.60;;
2602;SDS011;1311;47.966;7.958;2023-05-14T09:33:26;4.80;;;4.40;;
2602;SDS011;1311;47.966;7.958;2023-05-14T09:35:54;4.47;;;4.07;;
2602;SDS011;1311;47.966;7.958;2023-05-14T09:38:27;3.83;;;3.53;;
2602;SDS011;1311;47.966;7.958;2023-05-14T09:40:54;3.73;;;3.40;;
2602;SDS011;1311;47.966;7.958;2023-05-14T09:43:21;4.10;;;3.80;;
2602;SDS011;1311;47.966;7.958;2023-05-14T09:45:48;3.67;;;3.37;;
2602;SDS011;1311;47.966;7.958;2023-05-14T09:48:15;4.60;;;4.30;;
2602;SDS011;1311;47.966;7.958;2023-05-14T09:50:42;4.50;;;4.20;;
2602;SDS011;1311;47.966;7.958;2023-05-14T09:53:09;3.53;;;3.20;;
2602;SDS011;1311;47.966;7.958;2023-05-14T09:55:38;4.33;;;3.93;;
2602;SDS011;1311;47.966;7.958;2023-05-14T09:58:05;3.77;;;3.47;;
2602;SDS011;1311;47.966;7.958;2023-05-14T10:00:32;3.10;;;2.90;;
2602;SDS011;1311;47.966;7.958;2023-05-14T10:03:02;3.17;;;2.97;;
2602;SDS011;1311;47.966;7.958;2023-05-14T10:05:31;3.13;;;2.93;;
2602;SDS011;1311;47.966;7.958;2023-05-14T10:08:00;3.90;;;3.60;;
2602;SDS011;1311;47.966;7.958;2023-05-14T10:10:30;3.53;;;3.23;;
2602;SDS011;1311;47.966;7.958;2023-05-14T10:13:01;3.70;;;3.50;;
2602;SDS011;1311;47.966;7.958;2023-05-14T10:15:32;3.53;;;3.27;;
2602;SDS011;1311;47.966;7.958;2023-05-14T10:18:03;4.00;;;3.70;;
2602;SDS011;1311;47.966;7.958;2023-05-14T10:20:35;3.23;;;3.03;;
2602;SDS011;1311;47.966;7.958;2023-05-14T10:23:03;3.77;;;3.47;;
2602;SDS011;1311;47.966;7.958;2023-05-14T10:25:31;4.07;;;3.70;;
2602;SDS011;1311;47.966;7.958;2023-05-14T10:27:58;4.40;;;4.10;;
2602;SDS011;1311;47.966;7.958;2023-05-14T10:30:27;5.00;;;4.00;;
2602;SDS011;1311;47.966;7.958;2023-05-14T10:33:07;4.73;;;4.30;;
2602;SDS011;1311;47.966;7.958;2023-05-14T10:35:50;5.13;;;4.73;;
2602;SDS011;1311;47.966;7.958;2023-05-14T10:38:22;4.10;;;3.80;;
2602;SDS011;1311;47.966;7.958;2023-05-14T10:43:21;4.73;;;4.40;;
2602;SDS011;1311;47.966;7.958;2023-05-14T10:45:51;5.30;;;4.80;;
2602;SDS011;1311;47.966;7.958;2023-05-14T10:48:18;4.83;;;4.30;;
2602;SDS011;1311;47.966;7.958;2023-05-14T10:50:46;5.30;;;4.83;;
2602;SDS011;1311;47.966;7.958;2023-05-14T10:53:13;5.00;;;4.60;;
2602;SDS011;1311;47.966;7.958;2023-05-14T10:55:41;4.97;;;4.57;;
2602;SDS011;1311;47.966;7.958;2023-05-14T10:58:08;5.33;;;4.83;;
2602;SDS011;1311;47.966;7.958;2023-05-14T11:00:37;5.37;;;4.73;;
2602;SDS011;1311;47.966;7.958;2023-05-14T11:03:04;5.10;;;4.70;;
2602;SDS011;1311;47.966;7.958;2023-05-14T11:05:32;3.90;;;3.60;;
2602;SDS011;1311;47.966;7.958;2023-05-14T11:08:01;4.80;;;4.40;;
2602;SDS011;1311;47.966;7.958;2023-05-14T11:10:31;4.10;;;3.80;;
2602;SDS011;1311;47.966;7.958;2023-05-14T11:12:59;5.10;;;4.70;;
2602;SDS011;1311;47.966;7.958;2023-05-14T11:15:26;4.00;;;3.70;;
2602;SDS011;1311;47.966;7.958;2023-05-14T11:17:54;4.80;;;4.40;;
2602;SDS011;1311;47.966;7.958;2023-05-14T11:20:21;4.20;;;3.80;;
2602;SDS011;1311;47.966;7.958;2023-05-14T11:22:48;4.67;;;4.27;;
2602;SDS011;1311;47.966;7.958;2023-05-14T11:25:15;4.60;;;4.20;;
2602;SDS011;1311;47.966;7.958;2023-05-14T11:27:43;4.70;;;4.30;;
2602;SDS011;1311;47.966;7.958;2023-05-14T11:30:12;4.00;;;3.70;;
2602;SDS011;1311;47.966;7.958;2023-05-14T11:32:40;4.60;;;4.20;;
2602;SDS011;1311;47.966;7.958;2023-05-14T11:35:10;6.07;;;5.47;;
2602;SDS011;1311;47.966;7.958;2023-05-14T11:37:37;4.40;;;4.00;;
2602;SDS011;1311;47.966;7.958;2023-05-14T11:40:06;3.63;;;3.33;;
2602;SDS011;1311;47.966;7.958;2023-05-14T11:42:35;4.10;;;3.80;;
2602;SDS011;1311;47.966;7.958;2023-05-14T11:45:02;4.00;;;3.70;;
2602;SDS011;1311;47.966;7.958;2023-05-14T11:47:29;4.80;;;4.40;;
2602;SDS011;1311;47.966;7.958;2023-05-14T11:49:56;4.53;;;4.23;;
2602;SDS011;1311;47.966;7.958;2023-05-14T11:52:25;4.10;;;3.80;;
2602;SDS011;1311;47.966;7.958;2023-05-14T11:54:52;4.70;;;4.30;;
2602;SDS011;1311;47.966;7.958;2023-05-14T11:57:19;4.30;;;3.97;;
2602;SDS011;1311;47.966;7.958;2023-05-14T11:59:47;7.70;;;6.57;;
2602;SDS011;1311;47.966;7.958;2023-05-14T12:02:20;6.00;;;5.40;;
2602;SDS011;1311;47.966;7.958;2023-05-14T12:04:48;4.87;;;4.47;;
2602;SDS011;1311;47.966;7.958;2023-05-14T12:07:16;3.20;;;2.90;;
2602;SDS011;1311;47.966;7.958;2023-05-14T12:09:45;3.67;;;3.37;;
2602;SDS011;1311;47.966;7.958;2023-05-14T12:12:14;3.97;;;3.60;;
2602;SDS011;1311;47.966;7.958;2023-05-14T12:14:43;4.07;;;3.70;;
2602;SDS011;1311;47.966;7.958;2023-05-14T12:17:11;4.27;;;3.87;;
2602;SDS011;1311;47.966;7.958;2023-05-14T12:19:39;3.87;;;3.57;;
2602;SDS011;1311;47.966;7.958;2023-05-14T12:22:06;3.97;;;3.10;;
2602;SDS011;1311;47.966;7.958;2023-05-14T12:24:34;4.20;;;3.80;;
2602;SDS011;1311;47.966;7.958;2023-05-14T12:27:02;4.57;;;3.80;;
2602;SDS011;1311;47.966;7.958;2023-05-14T12:29:29;4.80;;;4.30;;
2602;SDS011;1311;47.966;7.958;2023-05-14T12:32:00;4.83;;;4.33;;
2602;SDS011;1311;47.966;7.958;2023-05-14T12:34:29;4.80;;;3.50;;
2602;SDS011;1311;47.966;7.958;2023-05-14T12:36:56;4.33;;;3.83;;
2602;SDS011;1311;47.966;7.958;2023-05-14T12:39:23;4.37;;;3.80;;
2602;SDS011;1311;47.966;7.958;2023-05-14T12:41:50;3.17;;;2.87;;
2602;SDS011;1311;47.966;7.958;2023-05-14T12:44:18;3.60;;;3.30;;
2602;SDS011;1311;47.966;7.958;2023-05-14T12:46:46;4.33;;;3.93;;
2602;SDS011;1311;47.966;7.958;2023-05-14T12:49:13;2.70;;;2.50;;
2602;SDS011;1311;47.966;7.958;2023-05-14T12:51:40;2.63;;;2.43;;
2602;SDS011;1311;47.966;7.958;2023-05-14T12:54:06;3.90;;;3.37;;
2602;SDS011;1311;47.966;7.958;2023-05-14T12:56:35;4.30;;;2.93;;
2602;SDS011;1311;47.966;7.958;2023-05-14T12:59:03;3.30;;;2.40;;
2602;SDS011;1311;47.966;7.958;2023-05-14T13:01:31;2.27;;;2.07;;
2602;SDS011;1311;47.966;7.958;2023-05-14T13:03:58;4.77;;;2.23;;
2602;SDS011;1311;47.966;7.958;2023-05-14T13:06:25;2.70;;;2.50;;
2602;SDS011;1311;47.966;7.958;2023-05-14T13:08:51;2.77;;;2.23;;
2602;SDS011;1311;47.966;7.958;2023-05-14T13:11:18;2.03;;;1.87;;
2602;SDS011;1311;47.966;7.958;2023-05-14T13:13:45;2.80;;;1.83;;
2602;SDS011;1311;47.966;7.958;2023-05-14T13:16:12;2.70;;;2.13;;
2602;SDS011;1311;47.966;7.958;2023-05-14T13:18:42;2.30;;;2.10;;
2602;SDS011;1311;47.966;7.958;2023-05-14T13:21:08;2.17;;;1.97;;
2602;SDS011;1311;47.966;7.958;2023-05-14T13:23:36;2.37;;;2.17;;
2602;SDS011;1311;47.966;7.958;2023-05-14T13:26:03;2.53;;;2.00;;
2602;SDS011;1311;47.966;7.958;2023-05-14T13:28:30;2.40;;;2.10;;
2602;SDS011;1311;47.966;7.958;2023-05-14T13:31:04;2.47;;;2.27;;
2602;SDS011;1311;47.966;7.958;2023-05-14T13:33:32;2.00;;;1.83;;
2602;SDS011;1311;47.966;7.958;2023-05-14T13:36:01;2.40;;;2.20;;
2602;SDS011;1311;47.966;7.958;2023-05-14T13:38:29;2.50;;;2.30;;
2602;SDS011;1311;47.966;7.958;2023-05-14T13:40:56;4.33;;;2.50;;
2602;SDS011;1311;47.966;7.958;2023-05-14T13:43:26;2.40;;;2.20;;
2602;SDS011;1311;47.966;7.958;2023-05-14T13:45:53;4.53;;;2.10;;
2602;SDS011;1311;47.966;7.958;2023-05-14T13:48:20;3.03;;;2.10;;
2602;SDS011;1311;47.966;7.958;2023-05-14T13:50:48;2.70;;;2.50;;
2602;SDS011;1311;47.966;7.958;2023-05-14T13:53:17;3.53;;;2.30;;
2602;SDS011;1311;47.966;7.958;2023-05-14T13:55:44;2.47;;;2.30;;
2602;SDS011;1311;47.966;7.958;2023-05-14T13:58:11;3.10;;;2.37;;
2602;SDS011;1311;47.966;7.958;2023-05-14T14:00:38;2.43;;;2.20;;
2602;SDS011;1311;47.966;7.958;2023-05-14T14:03:05;2.70;;;2.33;;
2602;SDS011;1311;47.966;7.958;2023-05-14T14:05:33;2.40;;;2.20;;
2602;SDS011;1311;47.966;7.958;2023-05-14T14:07:59;2.60;;;2.40;;
2602;SDS011;1311;47.966;7.958;2023-05-14T14:10:28;2.20;;;2.00;;
2602;SDS011;1311;47.966;7.958;2023-05-14T14:12:54;2.37;;;2.17;;
2602;SDS011;1311;47.966;7.958;2023-05-14T14:15:21;2.33;;;2.13;;
2602;SDS011;1311;47.966;7.958;2023-05-14T14:17:48;2.87;;;2.57;;
2602;SDS011;1311;47.966;7.958;2023-05-14T14:20:15;2.20;;;2.00;;
2602;SDS011;1311;47.966;7.958;2023-05-14T14:22:42;2.50;;;2.30;;
2602;SDS011;1311;47.966;7.958;2023-05-14T14:25:09;2.80;;;2.60;;
2602;SDS011;1311;47.966;7.958;2023-05-14T14:27:38;2.70;;;2.50;;
2602;SDS011;1311;47.966;7.958;2023-05-14T14:30:06;2.40;;;2.20;;
2602;SDS011;1311;47.966;7.958;2023-05-14T14:32:39;2.23;;;2.10;;
2602;SDS011;1311;47.966;7.958;2023-05-14T14:35:07;3.00;;;2.70;;
2602;SDS011;1311;47.966;7.958;2023-05-14T14:37:34;2.63;;;2.43;;
2602;SDS011;1311;47.966;7.958;2023-05-14T14:40:01;5.10;;;3.37;;
2602;SDS011;1311;47.966;7.958;2023-05-14T14:42:28;3.50;;;3.20;;
2602;SDS011;1311;47.966;7.958;2023-05-14T14:44:56;3.00;;;2.80;;
2602;SDS011;1311;47.966;7.958;2023-05-14T14:47:22;3.00;;;2.80;;
2602;SDS011;1311;47.966;7.958;2023-05-14T14:49:49;2.40;;;2.20;;
2602;SDS011;1311;47.966;7.958;2023-05-14T14:52:16;2.77;;;2.57;;
2602;SDS011;1311;47.966;7.958;2023-05-14T14:54:43;2.23;;;2.03;;
2602;SDS011;1311;47.966;7.958;2023-05-14T14:57:10;3.10;;;2.90;;
2602;SDS011;1311;47.966;7.958;2023-05-14T14:59:36;2.50;;;2.30;;
2602;SDS011;1311;47.966;7.958;2023-05-14T15:02:05;2.37;;;2.17;;
2602;SDS011;1311;47.966;7.958;2023-05-14T15:04:33;2.33;;;2.13;;
2602;SDS011;1311;47.966;7.958;2023-05-14T15:07:00;3.00;;;2.57;;
2602;SDS011;1311;47.966;7.958;2023-05-14T15:09:27;2.57;;;2.33;;
2602;SDS011;1311;47.966;7.958;2023-05-14T15:11:53;2.17;;;2.03;;
2602;SDS011;1311;47.966;7.958;2023-05-14T15:14:20;2.57;;;2.37;;
2602;SDS011;1311;47.966;7.958;2023-05-14T15:16:47;2.50;;;2.20;;
2602;SDS011;1311;47.966;7.958;2023-05-14T15:19:15;2.83;;;2.20;;